createdAt,value
2019-03-15T00:01:49.252Z,100145.14
2019-03-15T00:04:17.872Z,100144.31
2019-03-15T00:06:46.582Z,100142.25
2019-03-15T00:09:15.252Z,100140.97
2019-03-15T00:11:43.905Z,100143.59
2019-03-15T00:14:12.616Z,100149.69
2019-03-15T00:16:41.352Z,100157.23
2019-03-15T00:19:09.994Z,100159.72
2019-03-15T00:21:38.701Z,100161.81
2019-03-15T00:24:07.419Z,100160.20
2019-03-15T00:26:36.070Z,100162.56
2019-03-15T00:29:05.326Z,100161.95
2019-03-15T00:31:34.019Z,100182.74
2019-03-15T00:34:02.647Z,100176.33
2019-03-15T00:36:31.262Z,100180.84
2019-03-15T00:39:00.177Z,100188.41
2019-03-15T00:41:28.729Z,100183.98
2019-03-15T00:43:57.350Z,100193.08
2019-03-15T00:46:26.111Z,100190.33
2019-03-15T00:48:55.766Z,100185.41
2019-03-15T00:51:24.594Z,100185.41
2019-03-15T00:53:54.522Z,100181.38
2019-03-15T00:56:23.590Z,100173.36
2019-03-15T00:58:52.311Z,100171.98
2019-03-15T01:01:20.928Z,100170.08
2019-03-15T01:03:49.648Z,100183.28
2019-03-15T01:06:18.397Z,100175.26
2019-03-15T01:08:47.186Z,100186.00
2019-03-15T01:11:15.929Z,100186.56
2019-03-15T01:13:44.603Z,100189.73
2019-03-15T01:16:13.462Z,100194.58
2019-03-15T01:18:42.173Z,100190.55
2019-03-15T01:21:10.833Z,100195.06
2019-03-15T01:23:39.466Z,100194.31
2019-03-15T01:26:08.155Z,100193.72
2019-03-15T01:28:36.917Z,100198.49
2019-03-15T01:31:05.580Z,100206.03
2019-03-15T01:33:34.171Z,100196.45
2019-03-15T01:36:02.839Z,100193.09
2019-03-15T01:38:31.433Z,100189.58
2019-03-15T01:41:00.217Z,100186.37
2019-03-15T01:43:29.924Z,100191.19
2019-03-15T01:45:58.659Z,100208.90
2019-03-15T01:48:27.341Z,100197.86
2019-03-15T01:50:56.159Z,100201.73
2019-03-15T01:53:24.716Z,100197.15
2019-03-15T01:55:53.818Z,100194.32
2019-03-15T01:58:22.542Z,100196.33
2019-03-15T02:00:51.412Z,100200.47
2019-03-15T02:03:20.148Z,100193.83
2019-03-15T02:05:48.879Z,100197.03
2019-03-15T02:08:17.635Z,100188.98
2019-03-15T02:10:46.389Z,100196.73
2019-03-15T02:13:15.102Z,100190.88
2019-03-15T02:15:43.717Z,100194.23
2019-03-15T02:18:12.416Z,100193.65
2019-03-15T02:20:41.157Z,100188.91
2019-03-15T02:23:09.831Z,100191.41
2019-03-15T02:25:38.505Z,100191.93
2019-03-15T02:28:07.204Z,100181.75
2019-03-15T02:30:35.916Z,100189.20
2019-03-15T02:33:06.231Z,100198.23
2019-03-15T02:35:35.131Z,100196.51
2019-03-15T02:38:04.850Z,100197.85
2019-03-15T02:40:33.542Z,100170.10
2019-03-15T02:43:02.265Z,100199.04
2019-03-15T02:45:31.014Z,100201.20
2019-03-15T02:47:59.640Z,100197.47
2019-03-15T02:50:29.206Z,100179.73
2019-03-15T02:52:58.279Z,100184.62
2019-03-15T02:55:26.911Z,100179.25
2019-03-15T02:57:55.510Z,100187.52
2019-03-15T03:00:24.381Z,100183.50
2019-03-15T03:02:54.007Z,100184.13
2019-03-15T03:05:23.066Z,100160.50
2019-03-15T03:07:51.872Z,100160.50
2019-03-15T03:10:20.590Z,100159.94
2019-03-15T03:12:49.186Z,100165.79
2019-03-15T03:15:17.793Z,100155.87
2019-03-15T03:17:46.535Z,100161.55
2019-03-15T03:20:15.162Z,100162.36
2019-03-15T03:22:43.913Z,100149.47
2019-03-15T03:25:12.586Z,100163.14
2019-03-15T03:27:41.270Z,100155.13
2019-03-15T03:30:11.757Z,100150.88
2019-03-15T03:32:44.153Z,100151.48
2019-03-15T03:35:12.334Z,100157.52
2019-03-15T03:37:41.983Z,100149.16
2019-03-15T03:40:10.639Z,100149.64
2019-03-15T03:42:39.359Z,100150.98
2019-03-15T03:45:09.716Z,100150.44
2019-03-15T03:47:38.510Z,100149.91
2019-03-15T03:50:09.706Z,100139.47
2019-03-15T03:52:41.510Z,100134.81
2019-03-15T03:55:08.863Z,100129.74
2019-03-15T03:57:37.590Z,100122.47
2019-03-15T04:00:11.735Z,100127.69
2019-03-15T04:02:40.658Z,100123.19
2019-03-15T04:05:09.382Z,100117.00
2019-03-15T04:07:37.996Z,100121.55
2019-03-15T04:10:09.970Z,100127.47
2019-03-15T04:12:38.592Z,100121.55
2019-03-15T04:15:10.002Z,100121.28
2019-03-15T04:17:38.627Z,100120.20
2019-03-15T04:20:13.199Z,100125.01
2019-03-15T04:22:42.621Z,100114.31
2019-03-15T04:25:11.494Z,100106.64
2019-03-15T04:27:40.182Z,100101.00
2019-03-15T04:30:11.977Z,100090.42
2019-03-15T04:32:40.617Z,100090.87
2019-03-15T04:35:09.238Z,100089.30
2019-03-15T04:37:37.863Z,100090.61
2019-03-15T04:40:09.457Z,100098.73
2019-03-15T04:42:38.185Z,100092.84
2019-03-15T04:45:09.161Z,100083.48
2019-03-15T04:47:43.434Z,100067.97
2019-03-15T04:50:10.554Z,100075.30
2019-03-15T04:52:39.314Z,100080.22
2019-03-15T04:55:07.946Z,100081.66
2019-03-15T04:57:36.778Z,100089.72
2019-03-15T05:00:08.361Z,100076.68
2019-03-15T05:02:36.906Z,100076.06
2019-03-15T05:05:06.929Z,100078.71
2019-03-15T05:07:36.148Z,100085.49
2019-03-15T05:10:10.324Z,100091.72
2019-03-15T05:12:38.981Z,100086.34
2019-03-15T05:15:10.518Z,100069.54
2019-03-15T05:17:39.395Z,100067.18
2019-03-15T05:20:10.400Z,100072.84
2019-03-15T05:22:39.209Z,100055.39
2019-03-15T05:25:08.330Z,100057.66
2019-03-15T05:27:37.011Z,100055.59
2019-03-15T05:30:08.508Z,100053.83
2019-03-15T05:32:37.194Z,100042.76
2019-03-15T05:35:06.738Z,100046.52
2019-03-15T05:37:35.675Z,100038.77
2019-03-15T05:40:07.684Z,100046.49
2019-03-15T05:42:36.370Z,100061.23
2019-03-15T05:45:08.204Z,100051.34
2019-03-15T05:47:36.983Z,100046.81
2019-03-15T05:50:08.917Z,100043.94
2019-03-15T05:52:38.160Z,100036.86
2019-03-15T05:55:12.899Z,100029.20
2019-03-15T05:57:41.523Z,100029.23
2019-03-15T06:00:16.297Z,100025.43
2019-03-15T06:02:45.186Z,100019.83
2019-03-15T06:05:14.015Z,100022.98
2019-03-15T06:07:42.700Z,100015.77
2019-03-15T06:10:13.819Z,100012.96
2019-03-15T06:12:42.540Z,100013.31
2019-03-15T06:15:11.561Z,100008.53
2019-03-15T06:17:40.307Z,100012.80
2019-03-15T06:20:13.131Z,100007.97
2019-03-15T06:22:41.801Z,99999.52
2019-03-15T06:25:11.691Z,99991.45
2019-03-15T06:27:40.383Z,99987.39
2019-03-15T06:30:13.984Z,99987.80
2019-03-15T06:32:42.622Z,99989.34
2019-03-15T06:35:11.446Z,99988.80
2019-03-15T06:37:40.284Z,99977.50
2019-03-15T06:40:13.737Z,99980.70
2019-03-15T06:42:43.134Z,99979.42
2019-03-15T06:45:15.923Z,99975.69
2019-03-15T06:47:44.495Z,99976.27
2019-03-15T06:50:13.782Z,99971.52
2019-03-15T06:52:42.517Z,99966.42
2019-03-15T06:55:11.174Z,99961.28
2019-03-15T06:57:39.891Z,99960.28
2019-03-15T07:00:11.076Z,99952.74
2019-03-15T07:02:39.813Z,99954.41
2019-03-15T07:05:12.168Z,99951.50
2019-03-15T07:07:40.284Z,99954.21
2019-03-15T07:10:11.007Z,99955.05
2019-03-15T07:12:40.444Z,99956.90
2019-03-15T07:15:14.332Z,99942.67
2019-03-15T07:17:42.963Z,99941.66
2019-03-15T07:20:16.262Z,99943.84
2019-03-15T07:22:44.919Z,99935.78
2019-03-15T07:25:13.827Z,99924.50
2019-03-15T07:27:43.175Z,99916.44
2019-03-15T07:30:15.457Z,99896.27
2019-03-15T07:32:44.140Z,99907.00
2019-03-15T07:35:12.795Z,99890.59
2019-03-15T07:37:41.426Z,99892.02
2019-03-15T07:40:14.175Z,99888.22
2019-03-15T07:42:42.858Z,99896.22
2019-03-15T07:45:14.495Z,99894.06
2019-03-15T07:47:44.082Z,99894.61
2019-03-15T07:50:15.350Z,99891.70
2019-03-15T07:52:44.038Z,99877.47
2019-03-15T07:55:12.819Z,99883.16
2019-03-15T07:57:41.357Z,99880.47
2019-03-15T08:00:18.597Z,99873.25
2019-03-15T08:02:47.185Z,99871.08
2019-03-15T08:05:15.893Z,99882.91
2019-03-15T08:07:45.792Z,99888.02
2019-03-15T08:10:15.037Z,99896.30
2019-03-15T08:12:43.652Z,99883.38
2019-03-15T08:15:14.708Z,99864.36
2019-03-15T08:17:43.368Z,99872.42
2019-03-15T08:20:14.679Z,99866.52
2019-03-15T08:22:43.400Z,99861.43
2019-03-15T08:25:12.499Z,99860.29
2019-03-15T08:27:41.359Z,99854.61
2019-03-15T08:30:15.738Z,99814.38
2019-03-15T08:32:44.523Z,99839.83
2019-03-15T08:35:14.510Z,99830.09
2019-03-15T08:37:43.236Z,99833.83
2019-03-15T08:40:15.721Z,99821.19
2019-03-15T08:42:44.486Z,99830.08
2019-03-15T08:45:18.718Z,99836.80
2019-03-15T08:47:47.811Z,99824.42
2019-03-15T08:50:19.072Z,99813.70
2019-03-15T08:52:47.715Z,99824.52
2019-03-15T08:55:16.498Z,99821.61
2019-03-15T08:57:45.166Z,99815.36
2019-03-15T09:00:19.040Z,99818.33
2019-03-15T09:02:47.733Z,99824.01
2019-03-15T09:05:18.986Z,99807.38
2019-03-15T09:07:47.672Z,99813.80
2019-03-15T09:10:24.174Z,99798.83
2019-03-15T09:12:50.546Z,99790.50
2019-03-15T09:15:19.184Z,99778.66
2019-03-15T09:17:47.858Z,99782.71
2019-03-15T09:20:16.726Z,99771.20
2019-03-15T09:22:45.549Z,99787.05
2019-03-15T09:25:19.751Z,99780.64
2019-03-15T09:27:46.661Z,99771.29
2019-03-15T09:30:24.775Z,99766.13
2019-03-15T09:32:47.318Z,99781.02
2019-03-15T09:35:15.960Z,99785.06
2019-03-15T09:37:47.230Z,99775.41
2019-03-15T09:40:18.163Z,99773.79
2019-03-15T09:42:46.804Z,99766.03
2019-03-15T09:45:19.232Z,99774.16
2019-03-15T09:47:48.435Z,99746.22
2019-03-15T09:50:33.202Z,99771.00
2019-03-15T09:52:48.604Z,99758.38
2019-03-15T09:55:17.263Z,99745.80
2019-03-15T09:57:46.055Z,99745.85
2019-03-15T10:00:20.313Z,99640.43
2019-03-15T10:02:48.966Z,99731.11
2019-03-15T10:05:17.659Z,99731.14
2019-03-15T10:07:46.356Z,99722.80
2019-03-15T10:10:19.355Z,99717.69
2019-03-15T10:12:48.064Z,99725.23
2019-03-15T10:15:19.848Z,99724.16
2019-03-15T10:17:48.681Z,99724.97
2019-03-15T10:20:17.368Z,99708.81
2019-03-15T10:22:46.018Z,99720.39
2019-03-15T10:25:16.557Z,99720.13
2019-03-15T10:27:45.166Z,99723.38
2019-03-15T10:30:18.543Z,99716.08
2019-03-15T10:32:47.182Z,99721.73
2019-03-15T10:35:16.013Z,99720.12
2019-03-15T10:37:44.655Z,99721.16
2019-03-15T10:40:39.835Z,99723.32
2019-03-15T10:43:08.592Z,99724.09
2019-03-15T10:45:37.270Z,99732.66
2019-03-15T10:48:08.138Z,99721.78
2019-03-15T10:50:36.274Z,99717.05
2019-03-15T10:53:05.573Z,99712.47
2019-03-15T10:55:34.714Z,99709.77
2019-03-15T10:58:03.381Z,99728.33
2019-03-15T11:00:33.212Z,99724.61
2019-03-15T11:03:02.138Z,99729.70
2019-03-15T11:05:31.130Z,99729.70
2019-03-15T11:07:59.901Z,99727.23
2019-03-15T11:10:28.705Z,99732.56
2019-03-15T11:12:57.419Z,99735.18
2019-03-15T11:15:26.132Z,99743.15
2019-03-15T11:17:54.938Z,99724.88
2019-03-15T11:20:24.463Z,99736.72
2019-03-15T11:22:53.327Z,99733.50
2019-03-15T11:25:22.232Z,99733.50
2019-03-15T11:27:51.151Z,99737.60
2019-03-15T11:30:19.970Z,99736.39
2019-03-15T11:32:48.873Z,99730.23
2019-03-15T11:35:20.932Z,99739.17
2019-03-15T11:37:48.134Z,99732.13
2019-03-15T11:40:19.465Z,99701.53
2019-03-15T11:42:48.499Z,99715.66
2019-03-15T11:45:20.597Z,99708.48
2019-03-15T11:48:03.367Z,99710.61
2019-03-15T11:50:23.959Z,99723.62
2019-03-15T11:52:53.026Z,99739.63
2019-03-15T11:55:25.879Z,99731.86
2019-03-15T11:57:55.381Z,99718.62
2019-03-15T12:00:24.184Z,99712.30
2019-03-15T12:02:54.187Z,99708.00
2019-03-15T12:05:24.386Z,99730.55
2019-03-15T12:08:00.219Z,99752.52
2019-03-15T12:10:34.528Z,99754.23
2019-03-15T12:13:03.594Z,99775.66
2019-03-15T12:15:32.350Z,99784.41
2019-03-15T12:18:03.118Z,99785.73
2019-03-15T12:20:33.702Z,99775.04
2019-03-15T12:23:02.536Z,99782.35
2019-03-15T12:25:31.634Z,99778.77
2019-03-15T12:28:02.624Z,99785.91
2019-03-15T12:30:32.462Z,99773.75
2019-03-15T12:33:02.212Z,99757.23
2019-03-15T12:35:31.203Z,99773.69
2019-03-15T12:38:00.091Z,99776.09
2019-03-15T12:40:28.884Z,99768.23
2019-03-15T12:42:59.070Z,99766.98
2019-03-15T12:45:28.074Z,99774.30
2019-03-15T12:48:00.190Z,99772.40
2019-03-15T12:50:29.025Z,99761.56
2019-03-15T12:52:57.853Z,99748.55
2019-03-15T12:55:27.922Z,99753.08
2019-03-15T12:57:56.774Z,99754.94
2019-03-15T13:00:27.328Z,99745.53
2019-03-15T13:02:56.198Z,99748.53
2019-03-15T13:05:25.993Z,99770.88
2019-03-15T13:07:54.767Z,99748.80
2019-03-15T13:10:24.734Z,99755.20
2019-03-15T13:12:53.376Z,99760.62
2019-03-15T13:15:25.226Z,99759.89
2019-03-15T13:17:54.012Z,99754.23
2019-03-15T13:20:25.250Z,99759.85
2019-03-15T13:22:55.712Z,99758.61
2019-03-15T13:25:25.034Z,99775.07
2019-03-15T13:27:54.652Z,99777.02
2019-03-15T13:30:23.972Z,99775.16
2019-03-15T13:32:56.890Z,99768.15
2019-03-15T13:35:26.093Z,99785.59
2019-03-15T13:37:54.857Z,99775.66
2019-03-15T13:40:25.025Z,99801.44
2019-03-15T13:42:53.895Z,99750.53
2019-03-15T13:45:22.729Z,99807.11
2019-03-15T13:47:51.470Z,99806.87
2019-03-15T13:50:22.145Z,99794.16
2019-03-15T13:52:50.837Z,99817.02
2019-03-15T13:55:19.539Z,99817.64
2019-03-15T13:57:48.209Z,99807.98
2019-03-15T14:00:18.041Z,99821.23
2019-03-15T14:02:47.857Z,99838.23
2019-03-15T14:05:16.669Z,99835.42
2019-03-15T14:07:45.471Z,99824.78
2019-03-15T14:10:15.998Z,99824.97
2019-03-15T14:12:45.048Z,99830.02
2019-03-15T14:15:18.135Z,99832.70
2019-03-15T14:17:47.101Z,99832.63
2019-03-15T14:20:15.999Z,99822.41
2019-03-15T14:22:45.030Z,99830.56
2019-03-15T14:25:21.194Z,99828.13
2019-03-15T14:27:49.926Z,99838.95
2019-03-15T14:30:18.787Z,99788.04
2019-03-15T14:32:47.633Z,99844.89
2019-03-15T14:35:16.357Z,99859.03
2019-03-15T14:37:45.373Z,99851.45
2019-03-15T14:40:14.261Z,99856.27
2019-03-15T14:42:43.158Z,99869.41
2019-03-15T14:45:14.242Z,99863.09
2019-03-15T14:47:43.062Z,99864.55
2019-03-15T14:50:14.227Z,99855.44
2019-03-15T14:52:42.926Z,99866.41
2019-03-15T14:55:14.150Z,99871.36
2019-03-15T14:57:52.102Z,99869.66
2019-03-15T15:00:16.770Z,99878.40
2019-03-15T15:02:45.939Z,99884.39
2019-03-15T15:05:16.035Z,99882.53
2019-03-15T15:07:47.339Z,99903.06
2019-03-15T15:10:18.207Z,99903.39
2019-03-15T15:12:53.337Z,99910.78
2019-03-15T15:15:22.254Z,99906.48
2019-03-15T15:17:50.954Z,99908.89
2019-03-15T15:20:19.723Z,99914.60
2019-03-15T15:22:48.514Z,99918.67
2019-03-15T15:25:20.244Z,99881.86
2019-03-15T15:27:49.926Z,99905.98
2019-03-15T15:30:19.268Z,99917.58
2019-03-15T15:32:48.061Z,99930.28
2019-03-15T15:35:16.906Z,99918.42
2019-03-15T15:37:47.924Z,99918.69
2019-03-15T15:40:19.692Z,99923.00
2019-03-15T15:42:49.086Z,99911.11
2019-03-15T15:45:17.955Z,99911.11
2019-03-15T15:47:46.856Z,99919.82
2019-03-15T15:50:17.621Z,99897.09
2019-03-15T15:52:46.363Z,99919.27
2019-03-15T15:55:16.678Z,99901.16
2019-03-15T15:57:45.401Z,99914.77
2019-03-15T16:00:16.020Z,99927.26
2019-03-15T16:02:44.898Z,99922.43
2019-03-15T16:05:13.881Z,99930.84
2019-03-15T16:07:42.702Z,99926.30
2019-03-15T16:10:13.646Z,99929.50
2019-03-15T16:12:42.514Z,99935.75
2019-03-15T16:15:16.770Z,99924.96
2019-03-15T16:17:46.042Z,99879.55
2019-03-15T16:20:15.040Z,99921.77
2019-03-15T16:22:43.827Z,99941.00
2019-03-15T16:25:13.657Z,99956.47
2019-03-15T16:27:50.533Z,99954.87
2019-03-15T16:30:23.594Z,99955.70
2019-03-15T16:32:53.059Z,99960.59
2019-03-15T16:35:21.840Z,99954.44
2019-03-15T16:37:50.638Z,99969.56
2019-03-15T16:40:20.123Z,99981.20
2019-03-15T16:42:49.614Z,99957.70
2019-03-15T16:45:30.541Z,99985.02
2019-03-15T16:47:59.168Z,99991.80
2019-03-15T16:50:27.962Z,99995.05
2019-03-15T16:52:56.792Z,100006.94
2019-03-15T16:55:25.503Z,100000.75
2019-03-15T16:57:58.118Z,100003.98
2019-03-15T17:00:27.350Z,100010.47
2019-03-15T17:02:56.375Z,100025.58
2019-03-15T17:05:32.313Z,100022.87
2019-03-15T17:08:01.066Z,100024.47
2019-03-15T17:10:32.416Z,100024.20
2019-03-15T17:13:01.142Z,100034.45
2019-03-15T17:15:29.933Z,100030.94
2019-03-15T17:17:58.745Z,100051.97
2019-03-15T17:20:27.546Z,100066.25
2019-03-15T17:22:56.331Z,99918.07
2019-03-15T17:25:25.136Z,100068.38
2019-03-15T17:27:53.901Z,100095.08
2019-03-15T17:30:22.794Z,100090.73
2019-03-15T17:32:51.663Z,100085.34
2019-03-15T17:35:21.511Z,100097.23
2019-03-15T17:37:50.245Z,100089.91
2019-03-15T17:40:21.636Z,100088.03
2019-03-15T17:42:51.056Z,100103.69
2019-03-15T17:45:20.368Z,100095.59
2019-03-15T17:47:49.138Z,100094.48
2019-03-15T17:50:28.566Z,100093.66
2019-03-15T17:52:57.368Z,100106.05
2019-03-15T17:55:26.001Z,100106.31
2019-03-15T17:57:54.855Z,100132.94
2019-03-15T18:00:36.515Z,100124.91
2019-03-15T18:03:20.002Z,100130.23
2019-03-15T18:05:38.124Z,99970.48
2019-03-15T18:08:07.396Z,100143.59
2019-03-15T18:10:37.998Z,100150.84
2019-03-15T18:13:06.966Z,100156.99
2019-03-15T18:15:36.629Z,100168.21
2019-03-15T18:18:06.461Z,100169.03
2019-03-15T18:20:36.083Z,100162.30
2019-03-15T18:23:05.221Z,100173.89
2019-03-15T18:25:34.113Z,100105.89
2019-03-15T18:28:04.509Z,100176.02
2019-03-15T18:30:33.394Z,100180.61
2019-03-15T18:33:02.282Z,100178.72
2019-03-15T18:35:36.594Z,100185.45
2019-03-15T18:38:05.323Z,100180.21
2019-03-15T18:40:34.367Z,100189.87
2019-03-15T18:43:03.664Z,100194.75
2019-03-15T18:45:32.420Z,100203.59
2019-03-15T18:48:01.259Z,100205.42
2019-03-15T18:50:30.378Z,100215.59
2019-03-15T18:52:59.448Z,100205.84
2019-03-15T18:55:28.320Z,100224.69
2019-03-15T18:57:57.098Z,100221.76
2019-03-15T19:00:26.734Z,100227.36
2019-03-15T19:02:59.807Z,100233.75
2019-03-15T19:05:29.023Z,100236.73
2019-03-15T19:07:57.763Z,100242.12
2019-03-15T19:10:28.089Z,100244.98
2019-03-15T19:12:57.191Z,100243.08
2019-03-15T19:15:25.932Z,100251.42
2019-03-15T19:17:54.724Z,100248.91
2019-03-15T19:20:23.506Z,100248.91
2019-03-15T19:22:52.227Z,100245.88
2019-03-15T19:25:21.034Z,100263.72
2019-03-15T19:27:50.988Z,100267.41
2019-03-15T19:30:20.974Z,100259.61
2019-03-15T19:32:49.866Z,100272.25
2019-03-15T19:35:18.748Z,100263.06
2019-03-15T19:37:47.714Z,100134.72
2019-03-15T19:40:19.630Z,100295.16
2019-03-15T19:42:49.131Z,100295.13
2019-03-15T19:45:19.553Z,100293.58
2019-03-15T19:47:51.609Z,100305.05
2019-03-15T19:50:22.121Z,100301.74
2019-03-15T19:52:52.682Z,100311.92
2019-03-15T19:55:22.648Z,100312.51
2019-03-15T19:57:52.264Z,100309.52
2019-03-15T20:00:23.842Z,100322.66
2019-03-15T20:02:55.237Z,100310.52
2019-03-15T20:05:26.038Z,100320.30
2019-03-15T20:07:55.713Z,100317.11
2019-03-15T20:10:26.292Z,100317.30
2019-03-15T20:12:56.672Z,100329.95
2019-03-15T20:15:26.604Z,100318.98
2019-03-15T20:17:55.749Z,100325.55
2019-03-15T20:20:24.792Z,100326.31
2019-03-15T20:22:54.586Z,100335.66
2019-03-15T20:25:24.229Z,100341.55
2019-03-15T20:27:55.202Z,100318.77
2019-03-15T20:30:26.809Z,100333.62
2019-03-15T20:32:58.662Z,100328.61
2019-03-15T20:35:28.359Z,100326.48
2019-03-15T20:37:58.347Z,100336.75
2019-03-15T20:40:28.435Z,100346.33
2019-03-15T20:42:57.375Z,100352.05
2019-03-15T20:45:31.655Z,100348.20
2019-03-15T20:48:06.222Z,100352.30
2019-03-15T20:50:46.663Z,100348.37
2019-03-15T20:53:12.679Z,100347.02
2019-03-15T20:55:40.056Z,100345.38
2019-03-15T20:58:10.041Z,100341.09
2019-03-15T21:00:39.641Z,100346.17
2019-03-15T21:03:09.461Z,100357.22
2019-03-15T21:05:38.728Z,100358.53
2019-03-15T21:08:08.820Z,100360.02
2019-03-15T21:10:41.050Z,100363.89
2019-03-15T21:13:11.323Z,100357.25
2019-03-15T21:15:40.330Z,100352.44
2019-03-15T21:18:09.220Z,100356.11
2019-03-15T21:20:38.090Z,100350.20
2019-03-15T21:23:07.112Z,100349.19
2019-03-15T21:25:42.435Z,100364.57
2019-03-15T21:28:11.392Z,100364.22
2019-03-15T21:30:48.403Z,100370.41
2019-03-15T21:33:12.031Z,100376.03
2019-03-15T21:35:47.326Z,100344.13
2019-03-15T21:38:16.300Z,100382.16
2019-03-15T21:40:45.329Z,100228.86
2019-03-15T21:43:14.334Z,100395.19
2019-03-15T21:45:44.877Z,100391.75
2019-03-15T21:48:13.827Z,100390.33
2019-03-15T21:50:42.603Z,100393.65
2019-03-15T21:53:11.517Z,100386.66
2019-03-15T21:55:42.032Z,100391.05
2019-03-15T21:58:12.177Z,100397.22
2019-03-15T22:00:42.891Z,100406.41
2019-03-15T22:03:11.838Z,100419.94
2019-03-15T22:05:40.859Z,100426.50
2019-03-15T22:08:09.643Z,100430.44
2019-03-15T22:10:38.444Z,100417.55
2019-03-15T22:13:07.894Z,100423.72
2019-03-15T22:15:36.754Z,100403.95
2019-03-15T22:18:05.746Z,100414.69
2019-03-15T22:20:35.409Z,100416.52
2019-03-15T22:23:05.699Z,100419.41
2019-03-15T22:25:34.532Z,100414.32
2019-03-15T22:28:03.467Z,100430.43
2019-03-15T22:30:32.655Z,100440.20
2019-03-15T22:33:03.948Z,100448.23
2019-03-15T22:35:36.920Z,100452.23
2019-03-15T22:38:09.593Z,100458.14
2019-03-15T22:40:38.675Z,100457.39
2019-03-15T22:43:16.621Z,100472.94
2019-03-15T22:45:43.281Z,100472.45
2019-03-15T22:48:12.073Z,100476.92
2019-03-15T22:50:41.210Z,100481.11
2019-03-15T22:53:10.526Z,100488.84
2019-03-15T22:55:39.422Z,100496.20
2019-03-15T22:58:08.510Z,100498.19
2019-03-15T23:00:38.991Z,100469.05
2019-03-15T23:03:09.426Z,100469.91
2019-03-15T23:05:38.259Z,100468.97
2019-03-15T23:08:07.466Z,100496.33
2019-03-15T23:10:36.353Z,100490.72
2019-03-15T23:13:05.829Z,100495.31
2019-03-15T23:15:34.897Z,100472.52
2019-03-15T23:18:04.189Z,100511.64
2019-03-15T23:20:33.060Z,100512.17
2019-03-15T23:23:01.922Z,100505.06
2019-03-15T23:25:30.804Z,100498.42
2019-03-15T23:27:59.662Z,100512.69
2019-03-15T23:30:28.279Z,100511.87
2019-03-15T23:32:57.139Z,100510.78
2019-03-15T23:35:26.008Z,100509.18
2019-03-15T23:37:54.862Z,100515.30
2019-03-15T23:40:23.765Z,100512.28
2019-03-15T23:42:52.453Z,100515.20
2019-03-15T23:45:21.106Z,100525.69
2019-03-15T23:47:49.692Z,100527.55
2019-03-15T23:50:18.312Z,100531.78
2019-03-15T23:52:47.045Z,100535.39
2019-03-15T23:55:15.749Z,100534.75
2019-03-15T23:57:44.524Z,100540.72
